createdAt,value
2023-05-02T00:00:32.248Z,99771.87
2023-05-02T00:01:34.850Z,99772.91
2023-05-02T00:02:36.820Z,99774.00
2023-05-02T00:03:38.933Z,99769.22
2023-05-02T00:04:40.962Z,99766.59
2023-05-02T00:05:43.426Z,99768.66
2023-05-02T00:06:46.605Z,99765.31
2023-05-02T00:07:48.822Z,99767.16
2023-05-02T00:08:50.759Z,99771.78
2023-05-02T00:09:52.713Z,99767.09
2023-05-02T00:10:54.664Z,99769.62
2023-05-02T00:11:56.830Z,99769.06
2023-05-02T00:12:58.714Z,99766.03
2023-05-02T00:14:00.601Z,99770.19
2023-05-02T00:15:02.555Z,99769.50
2023-05-02T00:16:05.357Z,99769.72
2023-05-02T00:17:07.564Z,99763.50
2023-05-02T00:18:10.247Z,99769.78
2023-05-02T00:19:12.580Z,99764.69
2023-05-02T00:20:14.447Z,99760.84
2023-05-02T00:21:16.348Z,99763.50
2023-05-02T00:22:18.610Z,99769.72
2023-05-02T00:23:20.482Z,99765.88
2023-05-02T00:24:22.331Z,99765.25
2023-05-02T00:25:24.215Z,99773.06
2023-05-02T00:26:27.163Z,99776.50
2023-05-02T00:27:30.291Z,99779.44
2023-05-02T00:28:33.418Z,99783.59
2023-05-02T00:29:35.537Z,99776.00
2023-05-02T00:30:42.081Z,99777.78
2023-05-02T00:31:44.435Z,99777.59
2023-05-02T00:32:46.762Z,99778.66
2023-05-02T00:33:48.690Z,99773.37
2023-05-02T00:34:50.774Z,99779.28
2023-05-02T00:35:52.860Z,99772.56
2023-05-02T00:36:54.666Z,99772.44
2023-05-02T00:37:57.058Z,99774.00
2023-05-02T00:38:59.193Z,99769.53
2023-05-02T00:40:01.549Z,99773.75
2023-05-02T00:41:05.468Z,99770.59
2023-05-02T00:42:07.712Z,99776.03
2023-05-02T00:43:09.885Z,99770.38
2023-05-02T00:44:11.752Z,99774.53
2023-05-02T00:45:13.822Z,99780.53
2023-05-02T00:46:15.863Z,99777.22
2023-05-02T00:47:17.846Z,99779.31
2023-05-02T00:48:21.807Z,99777.47
2023-05-02T00:49:23.837Z,99780.19
2023-05-02T00:50:27.468Z,99776.12
2023-05-02T00:51:29.768Z,99774.47
2023-05-02T00:52:32.961Z,99776.16
2023-05-02T00:53:36.171Z,99768.88
2023-05-02T00:54:41.620Z,99777.09
2023-05-02T00:55:43.944Z,99776.69
2023-05-02T00:56:46.513Z,99772.78
2023-05-02T00:57:48.550Z,99782.91
2023-05-02T00:58:50.799Z,99772.94
2023-05-02T00:59:52.862Z,99774.72
2023-05-02T01:01:10.713Z,99772.78
2023-05-02T01:02:48.092Z,99776.38
2023-05-02T01:04:21.878Z,99779.81
2023-05-02T01:05:35.766Z,99780.13
2023-05-02T01:06:56.195Z,99782.25
2023-05-02T01:08:22.885Z,99780.53
2023-05-02T01:09:37.098Z,99784.53
2023-05-02T01:11:12.884Z,99787.34
2023-05-02T01:12:33.148Z,99787.59
2023-05-02T01:13:37.893Z,99780.81
2023-05-02T01:14:45.777Z,99780.50
2023-05-02T01:15:49.226Z,99783.09
2023-05-02T01:16:52.864Z,99781.00
2023-05-02T01:17:56.723Z,99779.63
2023-05-02T01:18:59.739Z,99778.19
2023-05-02T01:20:13.849Z,99778.53
2023-05-02T01:21:15.903Z,99783.22
2023-05-02T01:22:20.167Z,99783.00
2023-05-02T01:23:41.109Z,99777.88
2023-05-02T01:24:54.801Z,99777.25
2023-05-02T01:26:32.910Z,99773.00
2023-05-02T01:27:47.835Z,99774.16
2023-05-02T01:29:00.974Z,99770.94
2023-05-02T01:30:04.513Z,99781.34
2023-05-02T01:31:08.004Z,99770.69
2023-05-02T01:32:13.662Z,99777.25
2023-05-02T01:33:17.699Z,99773.97
2023-05-02T01:34:21.476Z,99770.94
2023-05-02T01:35:24.473Z,99774.47
2023-05-02T01:36:30.412Z,99767.97
2023-05-02T01:37:34.023Z,99768.41
2023-05-02T01:38:38.358Z,99759.97
2023-05-02T01:39:42.570Z,99772.56
2023-05-02T01:40:50.293Z,99758.59
2023-05-02T01:41:56.027Z,99766.81
2023-05-02T01:42:59.622Z,99760.59
2023-05-02T01:44:03.224Z,99770.75
2023-05-02T01:45:08.153Z,99759.50
2023-05-02T01:46:11.402Z,99764.75
2023-05-02T01:47:15.242Z,99758.31
2023-05-02T01:48:19.365Z,99764.75
2023-05-02T01:49:23.477Z,99764.91
2023-05-02T01:50:26.840Z,99766.25
2023-05-02T01:51:32.854Z,99767.75
2023-05-02T01:52:37.269Z,99762.97
2023-05-02T01:53:40.757Z,99762.13
2023-05-02T01:54:43.835Z,99765.22
2023-05-02T01:55:46.973Z,99763.06
2023-05-02T01:56:50.151Z,99760.72
2023-05-02T01:57:54.949Z,99759.03
2023-05-02T01:58:58.029Z,99765.56
2023-05-02T02:00:01.874Z,99762.06
2023-05-02T02:01:15.593Z,99764.75
2023-05-02T02:02:18.918Z,99761.47
2023-05-02T02:03:22.807Z,99769.69
2023-05-02T02:04:29.585Z,99760.59
2023-05-02T02:05:32.471Z,99758.50
2023-05-02T02:06:34.982Z,99762.84
2023-05-02T02:07:37.430Z,99764.50
2023-05-02T02:08:39.368Z,99761.31
2023-05-02T02:09:41.949Z,99759.34
2023-05-02T02:10:49.916Z,99757.69
2023-05-02T02:12:06.181Z,99761.78
2023-05-02T02:13:17.842Z,99765.31
2023-05-02T02:14:22.442Z,99754.69
2023-05-02T02:15:34.034Z,99756.09
2023-05-02T02:16:38.224Z,99758.09
2023-05-02T02:17:43.854Z,99749.97
2023-05-02T02:18:46.618Z,99753.19
2023-05-02T02:19:53.320Z,99756.53
2023-05-02T02:20:56.077Z,99757.53
2023-05-02T02:22:00.473Z,99753.25
2023-05-02T02:23:06.928Z,99754.47
2023-05-02T02:24:10.247Z,99752.28
2023-05-02T02:25:15.131Z,99754.41
2023-05-02T02:26:20.970Z,99754.41
2023-05-02T02:27:23.211Z,99747.59
2023-05-02T02:28:25.120Z,99749.16
2023-05-02T02:29:27.270Z,99753.56
2023-05-02T02:30:29.174Z,99750.03
2023-05-02T02:31:33.250Z,99749.91
2023-05-02T02:32:35.801Z,99749.66
2023-05-02T02:33:38.211Z,99750.03
2023-05-02T02:34:40.141Z,99755.50
2023-05-02T02:35:48.346Z,99745.47
2023-05-02T02:37:16.089Z,99752.22
2023-05-02T02:38:31.797Z,99745.84
2023-05-02T02:39:44.253Z,99748.00
2023-05-02T02:40:55.043Z,99749.56
2023-05-02T02:42:04.168Z,99745.69
2023-05-02T02:43:11.934Z,99747.53
2023-05-02T02:44:28.478Z,99743.09
2023-05-02T02:45:38.359Z,99746.72
2023-05-02T02:46:51.918Z,99751.03
2023-05-02T02:48:30.645Z,99755.06
2023-05-02T02:49:40.017Z,99749.09
2023-05-02T02:51:06.995Z,99752.91
2023-05-02T02:52:18.474Z,99749.69
2023-05-02T02:53:26.567Z,99755.66
2023-05-02T02:54:51.819Z,99753.69
2023-05-02T02:56:00.823Z,99750.97
2023-05-02T02:57:23.114Z,99751.69
2023-05-02T02:58:27.760Z,99752.22
2023-05-02T02:59:35.902Z,99754.16
2023-05-02T03:00:38.435Z,99753.72
2023-05-02T03:01:44.060Z,99754.75
2023-05-02T03:02:48.196Z,99752.03
2023-05-02T03:03:52.052Z,99747.78
2023-05-02T03:04:56.210Z,99746.66
2023-05-02T03:05:59.289Z,99750.31
2023-05-02T03:07:02.384Z,99748.91
2023-05-02T03:08:04.817Z,99753.47
2023-05-02T03:09:07.343Z,99750.31
2023-05-02T03:10:09.419Z,99748.59
2023-05-02T03:11:12.520Z,99750.16
2023-05-02T03:12:14.938Z,99757.22
2023-05-02T03:13:17.130Z,99757.81
2023-05-02T03:14:19.833Z,99761.81
2023-05-02T03:15:30.867Z,99759.66
2023-05-02T03:16:43.729Z,99762.72
2023-05-02T03:17:46.652Z,99755.09
2023-05-02T03:18:48.561Z,99764.75
2023-05-02T03:19:50.476Z,99762.72
2023-05-02T03:20:52.755Z,99761.62
2023-05-02T03:21:55.401Z,99763.97
2023-05-02T03:22:57.573Z,99759.50
2023-05-02T03:24:00.898Z,99764.06
2023-05-02T03:25:03.610Z,99760.75
2023-05-02T03:26:06.204Z,99759.47
2023-05-02T03:27:08.573Z,99762.81
2023-05-02T03:28:11.142Z,99764.53
2023-05-02T03:29:14.886Z,99760.56
2023-05-02T03:30:16.860Z,99774.06
2023-05-02T03:31:18.745Z,99766.06
2023-05-02T03:32:20.866Z,99764.81
2023-05-02T03:33:23.729Z,99763.34
2023-05-02T03:34:25.821Z,99760.56
2023-05-02T03:35:27.830Z,99757.53
2023-05-02T03:36:29.702Z,99766.19
2023-05-02T03:37:31.640Z,99767.28
2023-05-02T03:38:34.294Z,99764.81
2023-05-02T03:39:37.215Z,99769.03
2023-05-02T03:40:39.328Z,99764.41
2023-05-02T03:41:43.943Z,99769.44
2023-05-02T03:42:47.047Z,99766.28
2023-05-02T03:43:51.810Z,99764.72
2023-05-02T03:44:54.287Z,99769.59
2023-05-02T03:45:56.292Z,99774.47
2023-05-02T03:46:58.324Z,99772.53
2023-05-02T03:48:00.985Z,99768.72
2023-05-02T03:49:03.276Z,99770.22
2023-05-02T03:50:05.550Z,99780.97
2023-05-02T03:51:10.653Z,99768.84
2023-05-02T03:52:13.162Z,99774.56
2023-05-02T03:53:16.208Z,99777.66
2023-05-02T03:54:19.462Z,99768.41
2023-05-02T03:55:22.491Z,99772.41
2023-05-02T03:56:24.470Z,99776.97
2023-05-02T03:57:30.404Z,99774.00
2023-05-02T03:58:34.470Z,99769.44
2023-05-02T03:59:37.324Z,99769.53
2023-05-02T04:00:40.169Z,99779.16
2023-05-02T04:01:42.765Z,99769.31
2023-05-02T04:02:45.472Z,99774.47
2023-05-02T04:03:48.150Z,99772.31
2023-05-02T04:04:50.638Z,99779.84
2023-05-02T04:05:53.435Z,99779.37
2023-05-02T04:06:55.711Z,99784.28
2023-05-02T04:07:57.691Z,99785.28
2023-05-02T04:09:00.138Z,99780.97
2023-05-02T04:10:03.107Z,99777.19
2023-05-02T04:11:06.436Z,99779.72
2023-05-02T04:12:09.725Z,99780.41
2023-05-02T04:13:13.087Z,99780.50
2023-05-02T04:14:15.311Z,99780.59
2023-05-02T04:15:18.608Z,99780.13
2023-05-02T04:16:21.497Z,99784.56
2023-05-02T04:17:23.856Z,99781.56
2023-05-02T04:18:26.776Z,99787.03
2023-05-02T04:19:28.720Z,99784.56
2023-05-02T04:20:30.741Z,99787.03
2023-05-02T04:21:32.781Z,99785.53
2023-05-02T04:22:35.172Z,99789.53
2023-05-02T04:23:37.168Z,99785.84
2023-05-02T04:24:39.236Z,99790.16
2023-05-02T04:25:41.183Z,99786.94
2023-05-02T04:26:43.045Z,99795.75
2023-05-02T04:27:45.459Z,99796.16
2023-05-02T04:28:47.560Z,99799.56
2023-05-02T04:29:51.346Z,99796.38
2023-05-02T04:30:53.936Z,99801.78
2023-05-02T04:31:56.344Z,99800.75
2023-05-02T04:32:59.247Z,99801.00
2023-05-02T04:34:04.297Z,99811.50
2023-05-02T04:35:08.392Z,99803.72
2023-05-02T04:36:11.634Z,99804.97
2023-05-02T04:37:16.178Z,99804.78
2023-05-02T04:38:19.008Z,99804.38
2023-05-02T04:39:21.645Z,99806.31
2023-05-02T04:40:24.320Z,99809.56
2023-05-02T04:41:28.016Z,99808.56
2023-05-02T04:42:30.731Z,99809.25
2023-05-02T04:43:33.295Z,99810.22
2023-05-02T04:44:35.588Z,99800.59
2023-05-02T04:45:37.768Z,99808.16
2023-05-02T04:46:40.785Z,99803.69
2023-05-02T04:47:42.689Z,99804.19
2023-05-02T04:48:44.909Z,99810.37
2023-05-02T04:49:46.740Z,99812.47
2023-05-02T04:50:49.747Z,99812.63
2023-05-02T04:51:52.758Z,99811.44
2023-05-02T04:52:55.860Z,99815.50
2023-05-02T04:53:58.263Z,99817.94
2023-05-02T04:55:00.468Z,99815.88
2023-05-02T04:56:03.324Z,99817.56
2023-05-02T04:57:07.975Z,99823.28
2023-05-02T04:58:12.711Z,99812.13
2023-05-02T04:59:15.202Z,99820.59
2023-05-02T05:00:17.623Z,99817.37
2023-05-02T05:01:19.671Z,99821.84
2023-05-02T05:02:23.188Z,99822.16
2023-05-02T05:03:25.527Z,99823.59
2023-05-02T05:04:27.922Z,99822.66
2023-05-02T05:05:30.048Z,99822.56
2023-05-02T05:06:32.077Z,99817.72
2023-05-02T05:07:34.836Z,99820.81
2023-05-02T05:08:36.902Z,99825.37
2023-05-02T05:09:39.180Z,99830.97
2023-05-02T05:10:41.496Z,99825.34
2023-05-02T05:11:46.151Z,99834.56
2023-05-02T05:12:49.427Z,99829.12
2023-05-02T05:13:51.665Z,99830.00
2023-05-02T05:14:54.244Z,99824.63
2023-05-02T05:15:57.036Z,99827.19
2023-05-02T05:16:59.524Z,99826.00
2023-05-02T05:18:02.294Z,99830.81
2023-05-02T05:19:05.106Z,99835.09
2023-05-02T05:20:09.577Z,99830.63
2023-05-02T05:21:12.303Z,99832.81
2023-05-02T05:22:15.566Z,99834.63
2023-05-02T05:23:18.035Z,99837.75
2023-05-02T05:24:19.929Z,99836.09
2023-05-02T05:25:22.263Z,99836.72
2023-05-02T05:26:25.238Z,99838.94
2023-05-02T05:27:27.427Z,99833.53
2023-05-02T05:28:29.572Z,99838.16
2023-05-02T05:29:33.047Z,99841.94
2023-05-02T05:30:35.232Z,99835.09
2023-05-02T05:31:38.365Z,99837.66
2023-05-02T05:32:40.701Z,99834.47
2023-05-02T05:33:44.137Z,99834.72
2023-05-02T05:34:46.216Z,99835.09
2023-05-02T05:35:48.757Z,99835.44
2023-05-02T05:36:50.800Z,99831.84
2023-05-02T05:37:53.894Z,99837.09
2023-05-02T05:38:55.985Z,99841.41
2023-05-02T05:39:57.998Z,99838.44
2023-05-02T05:41:01.342Z,99837.69
2023-05-02T05:42:03.688Z,99837.91
2023-05-02T05:43:06.685Z,99837.69
2023-05-02T05:44:08.975Z,99837.34
2023-05-02T05:45:12.388Z,99839.41
2023-05-02T05:46:14.683Z,99839.03
2023-05-02T05:47:22.042Z,99844.56
2023-05-02T05:48:24.373Z,99843.97
2023-05-02T05:49:26.399Z,99846.84
2023-05-02T05:50:28.323Z,99853.25
2023-05-02T05:51:31.512Z,99851.69
2023-05-02T05:52:33.796Z,99853.44
2023-05-02T05:53:36.014Z,99853.38
2023-05-02T05:54:38.308Z,99852.06
2023-05-02T05:55:42.294Z,99855.75
2023-05-02T05:56:45.523Z,99854.53
2023-05-02T05:57:47.470Z,99855.44
2023-05-02T05:58:49.637Z,99854.31
2023-05-02T05:59:52.111Z,99856.50
2023-05-02T06:00:54.960Z,99856.50
2023-05-02T06:01:57.827Z,99861.22
2023-05-02T06:03:00.202Z,99866.28
2023-05-02T06:04:03.174Z,99866.16
2023-05-02T06:05:05.735Z,99862.69
2023-05-02T06:06:07.711Z,99862.66
2023-05-02T06:07:09.924Z,99865.56
2023-05-02T06:08:11.859Z,99870.13
2023-05-02T06:09:14.236Z,99864.87
2023-05-02T06:10:16.191Z,99866.78
2023-05-02T06:11:19.328Z,99871.69
2023-05-02T06:12:21.624Z,99878.84
2023-05-02T06:13:23.772Z,99875.69
2023-05-02T06:14:25.833Z,99878.31
2023-05-02T06:15:28.254Z,99879.97
2023-05-02T06:16:30.175Z,99885.88
2023-05-02T06:17:32.423Z,99882.50
2023-05-02T06:18:34.379Z,99883.03
2023-05-02T06:19:36.313Z,99882.00
2023-05-02T06:20:38.214Z,99880.38
2023-05-02T06:21:40.099Z,99879.41
2023-05-02T06:22:42.427Z,99877.31
2023-05-02T06:23:44.434Z,99880.03
2023-05-02T06:24:46.334Z,99877.31
2023-05-02T06:25:48.145Z,99881.66
2023-05-02T06:26:51.676Z,99881.03
2023-05-02T06:27:53.943Z,99880.97
2023-05-02T06:28:55.914Z,99881.09
2023-05-02T06:29:58.196Z,99884.25
2023-05-02T06:31:01.797Z,99878.19
2023-05-02T06:32:04.260Z,99881.63
2023-05-02T06:33:06.588Z,99882.53
2023-05-02T06:34:08.521Z,99883.09
2023-05-02T06:35:11.676Z,99881.03
2023-05-02T06:36:14.697Z,99880.22
2023-05-02T06:37:16.577Z,99883.47
2023-05-02T06:38:19.251Z,99882.19
2023-05-02T06:39:21.085Z,99878.31
2023-05-02T06:40:23.007Z,99883.12
2023-05-02T06:41:24.860Z,99886.22
2023-05-02T06:42:26.707Z,99890.97
2023-05-02T06:43:28.855Z,99877.00
2023-05-02T06:44:30.876Z,99876.84
2023-05-02T06:45:32.738Z,99882.16
2023-05-02T06:46:34.620Z,99881.41
2023-05-02T06:47:36.570Z,99875.72
2023-05-02T06:48:38.753Z,99879.31
2023-05-02T06:49:40.713Z,99889.34
2023-05-02T06:50:42.758Z,99888.59
2023-05-02T06:51:44.658Z,99882.94
2023-05-02T06:52:46.472Z,99886.87
2023-05-02T06:53:48.638Z,99886.50
2023-05-02T06:54:50.661Z,99885.03
2023-05-02T06:55:53.506Z,99882.84
2023-05-02T06:56:55.478Z,99890.81
2023-05-02T06:57:57.441Z,99887.47
2023-05-02T06:58:59.660Z,99886.53
2023-05-02T07:00:01.835Z,99881.53
2023-05-02T07:01:04.111Z,99879.97
2023-05-02T07:02:06.918Z,99884.00
2023-05-02T07:03:11.066Z,99884.25
2023-05-02T07:04:13.387Z,99891.53
2023-05-02T07:05:15.953Z,99893.81
2023-05-02T07:06:18.252Z,99887.28
2023-05-02T07:07:22.073Z,99888.97
2023-05-02T07:08:24.147Z,99892.94
2023-05-02T07:09:26.364Z,99878.97
2023-05-02T07:10:28.290Z,99879.53
2023-05-02T07:11:30.154Z,99882.53
2023-05-02T07:12:31.996Z,99877.50
2023-05-02T07:13:33.819Z,99881.09
2023-05-02T07:14:35.935Z,99879.72
2023-05-02T07:15:37.805Z,99885.81
2023-05-02T07:16:39.751Z,99877.94
2023-05-02T07:17:41.881Z,99877.19
2023-05-02T07:18:45.741Z,99880.03
2023-05-02T07:19:47.877Z,99880.84
2023-05-02T07:20:49.942Z,99880.53
2023-05-02T07:21:51.824Z,99881.00
2023-05-02T07:22:54.064Z,99884.75
2023-05-02T07:23:57.628Z,99881.06
2023-05-02T07:25:02.155Z,99885.84
2023-05-02T07:26:06.396Z,99886.91
2023-05-02T07:27:12.379Z,99885.88
2023-05-02T07:28:14.393Z,99876.88
2023-05-02T07:29:16.369Z,99879.75
2023-05-02T07:30:18.514Z,99878.56
2023-05-02T07:31:20.757Z,99890.41
2023-05-02T07:32:22.765Z,99890.47
2023-05-02T07:33:24.778Z,99880.66
2023-05-02T07:34:26.734Z,99885.47
2023-05-02T07:35:28.961Z,99883.34
2023-05-02T07:36:31.396Z,99886.00
2023-05-02T07:37:37.510Z,99882.81
2023-05-02T07:38:39.745Z,99885.69
2023-05-02T07:39:41.600Z,99881.91
2023-05-02T07:40:43.797Z,99885.03
2023-05-02T07:41:46.061Z,99882.09
2023-05-02T07:42:48.959Z,99885.03
2023-05-02T07:43:50.889Z,99875.62
2023-05-02T07:44:52.704Z,99887.00
2023-05-02T07:45:55.233Z,99890.75
2023-05-02T07:46:57.128Z,99887.63
2023-05-02T07:47:59.063Z,99886.00
2023-05-02T07:49:01.074Z,99887.06
2023-05-02T07:50:06.446Z,99890.25
2023-05-02T07:51:10.406Z,99887.06
2023-05-02T07:52:12.261Z,99895.56
2023-05-02T07:53:14.156Z,99890.78
2023-05-02T07:54:20.200Z,99896.84
2023-05-02T07:55:22.276Z,99899.25
2023-05-02T07:56:25.448Z,99898.47
2023-05-02T07:57:27.297Z,99899.25
2023-05-02T07:58:29.352Z,99906.66
2023-05-02T07:59:32.102Z,99900.84
2023-05-02T08:00:34.168Z,99899.25
2023-05-02T08:01:36.520Z,99898.44
2023-05-02T08:02:38.496Z,99897.66
2023-05-02T08:03:40.520Z,99898.69
2023-05-02T08:04:42.465Z,99893.69
2023-05-02T08:05:44.502Z,99902.97
2023-05-02T08:06:46.728Z,99894.22
2023-05-02T08:07:49.179Z,99887.06
2023-05-02T08:08:50.980Z,99890.25
2023-05-02T08:09:52.907Z,99898.22
2023-05-02T08:10:54.808Z,99899.75
2023-05-02T08:11:57.646Z,99888.06
2023-05-02T08:12:59.717Z,99889.13
2023-05-02T08:14:01.834Z,99891.00
2023-05-02T08:15:12.899Z,99903.94
2023-05-02T08:16:14.759Z,99895.34
2023-05-02T08:17:16.929Z,99897.72
2023-05-02T08:18:18.778Z,99899.38
2023-05-02T08:19:20.693Z,99901.00
2023-05-02T08:20:23.042Z,99902.97
2023-05-02T08:21:24.955Z,99904.72
2023-05-02T08:22:27.134Z,99904.91
2023-05-02T08:23:29.155Z,99904.06
2023-05-02T08:24:31.501Z,99898.66
2023-05-02T08:25:33.426Z,99911.47
2023-05-02T08:26:35.514Z,99898.59
2023-05-02T08:27:37.637Z,99909.87
2023-05-02T08:28:39.553Z,99905.72
2023-05-02T08:29:41.378Z,99905.72
2023-05-02T08:30:45.266Z,99895.34
2023-05-02T08:31:47.209Z,99903.00
2023-05-02T08:32:49.426Z,99898.53
2023-05-02T08:33:51.679Z,99893.69
2023-05-02T08:34:57.155Z,99901.94
2023-05-02T08:35:59.054Z,99914.41
2023-05-02T08:37:00.949Z,99899.12
2023-05-02T08:38:03.285Z,99891.31
2023-05-02T08:39:05.351Z,99893.22
2023-05-02T08:40:12.327Z,99898.75
2023-05-02T08:41:18.624Z,99892.72
2023-05-02T08:42:21.329Z,99897.72
2023-05-02T08:44:25.577Z,99898.03
2023-05-02T08:45:27.488Z,99894.03
2023-05-02T08:46:31.138Z,99894.16
2023-05-02T08:47:33.353Z,99899.78
2023-05-02T08:48:41.333Z,99893.44
2023-05-02T08:49:44.339Z,99900.69
2023-05-02T08:50:48.404Z,99892.91
2023-05-02T08:51:52.674Z,99888.19
2023-05-02T08:52:56.169Z,99896.19
2023-05-02T08:53:59.969Z,99900.72
2023-05-02T08:55:04.063Z,99891.44
2023-05-02T08:56:10.802Z,99900.50
2023-05-02T08:57:12.669Z,99888.63
2023-05-02T08:58:15.473Z,99896.03
2023-05-02T08:59:18.787Z,99894.06
2023-05-02T09:00:21.045Z,99885.59
2023-05-02T09:01:24.062Z,99875.91
2023-05-02T09:02:52.345Z,99895.03
2023-05-02T09:03:55.994Z,99888.47
2023-05-02T09:05:04.217Z,99887.69
2023-05-02T09:06:15.349Z,99894.91
2023-05-02T09:07:17.331Z,99883.88
2023-05-02T09:08:22.738Z,99880.22
2023-05-02T09:09:25.118Z,99883.47
2023-05-02T09:10:28.995Z,99890.38
2023-05-02T09:11:31.587Z,99883.50
2023-05-02T09:12:33.501Z,99881.34
2023-05-02T09:13:40.377Z,99882.81
2023-05-02T09:14:44.927Z,99887.16
2023-05-02T09:16:01.128Z,99884.19
2023-05-02T09:17:03.352Z,99888.56
2023-05-02T09:18:05.512Z,99890.88
2023-05-02T09:19:07.471Z,99888.63
2023-05-02T09:20:12.794Z,99886.84
2023-05-02T09:21:22.880Z,99893.00
2023-05-02T09:22:25.185Z,99884.56
2023-05-02T09:23:44.857Z,99882.22
2023-05-02T09:24:54.823Z,99889.31
2023-05-02T09:25:56.835Z,99889.53
2023-05-02T09:27:05.816Z,99887.50
2023-05-02T09:28:07.696Z,99885.03
2023-05-02T09:29:09.583Z,99886.22
2023-05-02T09:30:38.029Z,99884.88
2023-05-02T09:32:48.548Z,99883.25
2023-05-02T09:33:50.684Z,99893.03
2023-05-02T09:35:06.044Z,99891.16
2023-05-02T09:36:14.511Z,99892.69
2023-05-02T09:37:34.861Z,99886.37
2023-05-02T09:38:38.076Z,99897.28
2023-05-02T09:39:39.904Z,99892.38
2023-05-02T09:40:54.880Z,99888.03
2023-05-02T09:41:58.397Z,99879.87
2023-05-02T09:43:00.297Z,99884.81
2023-05-02T09:44:02.442Z,99895.41
2023-05-02T09:45:04.688Z,99896.50
2023-05-02T09:46:11.692Z,99897.19
2023-05-02T09:47:26.518Z,99897.28
2023-05-02T09:48:29.861Z,99882.16
2023-05-02T09:49:58.169Z,99890.78
2023-05-02T09:51:01.832Z,99901.03
2023-05-02T09:52:14.612Z,99896.72
2023-05-02T09:53:16.476Z,99898.84
2023-05-02T09:54:37.922Z,99892.28
2023-05-02T09:55:40.110Z,99899.22
2023-05-02T09:56:57.681Z,99893.03
2023-05-02T09:58:01.126Z,99886.44
2023-05-02T09:59:16.365Z,99886.13
2023-05-02T10:00:19.841Z,99887.06
2023-05-02T10:01:22.496Z,99885.53
2023-05-02T10:02:25.743Z,99887.34
2023-05-02T10:03:29.455Z,99885.03
2023-05-02T10:04:33.607Z,99879.44
2023-05-02T10:05:39.838Z,99879.72
2023-05-02T10:06:46.155Z,99879.16
2023-05-02T10:07:48.739Z,99881.59
2023-05-02T10:08:50.841Z,99879.44
2023-05-02T10:09:55.471Z,99873.38
2023-05-02T10:10:59.258Z,99878.53
2023-05-02T10:12:08.101Z,99878.00
2023-05-02T10:13:10.558Z,99871.09
2023-05-02T10:14:13.868Z,99863.03
2023-05-02T10:15:18.224Z,99877.94
2023-05-02T10:16:27.657Z,99872.63
2023-05-02T10:17:39.724Z,99874.62
2023-05-02T10:18:58.184Z,99873.09
2023-05-02T10:20:07.867Z,99879.13
2023-05-02T10:21:12.729Z,99879.78
2023-05-02T10:22:19.281Z,99873.88
2023-05-02T10:23:22.388Z,99872.97
2023-05-02T10:24:25.183Z,99870.03
2023-05-02T10:25:28.032Z,99869.25
2023-05-02T10:26:29.961Z,99878.69
2023-05-02T10:27:32.916Z,99867.91
2023-05-02T10:28:36.410Z,99866.88
2023-05-02T10:29:41.126Z,99860.88
2023-05-02T10:30:44.235Z,99865.03
2023-05-02T10:31:47.288Z,99867.12
2023-05-02T10:32:51.595Z,99857.28
2023-05-02T10:33:57.138Z,99859.44
2023-05-02T10:35:03.812Z,99858.28
2023-05-02T10:36:08.759Z,99861.72
2023-05-02T10:37:11.740Z,99862.97
2023-05-02T10:38:21.681Z,99847.63
2023-05-02T10:39:25.251Z,99854.19
2023-05-02T10:40:27.407Z,99849.78
2023-05-02T10:41:34.981Z,99858.25
2023-05-02T10:42:43.622Z,99858.25
2023-05-02T10:43:49.732Z,99844.62
2023-05-02T10:44:51.996Z,99845.50
2023-05-02T10:45:55.061Z,99845.00
2023-05-02T10:46:58.159Z,99841.41
2023-05-02T10:48:26.803Z,99840.00
2023-05-02T10:49:29.879Z,99844.56
2023-05-02T10:50:47.294Z,99839.03
2023-05-02T10:51:49.184Z,99848.97
2023-05-02T10:52:51.149Z,99845.22
2023-05-02T10:53:53.004Z,99846.41
2023-05-02T10:55:13.493Z,99841.03
2023-05-02T10:56:21.710Z,99838.22
2023-05-02T10:57:23.652Z,99835.00
2023-05-02T10:58:25.567Z,99829.47
2023-05-02T10:59:39.117Z,99831.09
2023-05-02T11:00:41.166Z,99840.63
2023-05-02T11:01:44.495Z,99833.50
2023-05-02T11:02:46.420Z,99836.06
2023-05-02T11:04:06.240Z,99839.69
2023-05-02T11:05:08.327Z,99833.28
2023-05-02T11:06:10.290Z,99833.97
2023-05-02T11:07:19.364Z,99830.03
2023-05-02T11:08:23.162Z,99828.75
2023-05-02T11:09:25.199Z,99827.75
2023-05-02T11:10:27.780Z,99822.66
2023-05-02T11:11:43.801Z,99825.94
2023-05-02T11:13:06.444Z,99830.12
2023-05-02T11:14:09.249Z,99823.16
2023-05-02T11:15:13.516Z,99826.50
2023-05-02T11:16:15.409Z,99816.09
2023-05-02T11:17:17.561Z,99821.66
2023-05-02T11:18:19.707Z,99819.56
2023-05-02T11:19:21.593Z,99817.44
2023-05-02T11:20:23.581Z,99815.19
2023-05-02T11:21:28.760Z,99816.06
2023-05-02T11:22:34.468Z,99806.69
2023-05-02T11:23:37.916Z,99808.97
2023-05-02T11:24:44.723Z,99809.31
2023-05-02T11:25:54.627Z,99819.72
2023-05-02T11:27:31.464Z,99807.25
2023-05-02T11:28:48.478Z,99815.12
2023-05-02T11:30:07.619Z,99802.56
2023-05-02T11:31:30.177Z,99802.78
2023-05-02T11:32:44.545Z,99797.34
2023-05-02T11:33:56.442Z,99798.84
2023-05-02T11:34:59.074Z,99800.34
2023-05-02T11:36:01.297Z,99795.63
2023-05-02T11:37:11.970Z,99792.72
2023-05-02T11:38:15.828Z,99787.31
2023-05-02T11:39:24.147Z,99793.34
2023-05-02T11:40:27.956Z,99786.75
2023-05-02T11:41:40.361Z,99777.38
2023-05-02T11:42:42.339Z,99794.00
2023-05-02T11:43:44.180Z,99796.22
2023-05-02T11:44:59.462Z,99802.03
2023-05-02T11:46:02.599Z,99799.16
2023-05-02T11:47:04.789Z,99795.37
2023-05-02T11:48:07.627Z,99790.84
2023-05-02T11:49:11.049Z,99791.62
2023-05-02T11:50:14.893Z,99795.19
2023-05-02T11:51:23.389Z,99791.47
2023-05-02T11:52:25.582Z,99791.28
2023-05-02T11:53:29.498Z,99789.97
2023-05-02T11:54:31.479Z,99794.41
2023-05-02T11:55:33.364Z,99783.56
2023-05-02T11:56:35.776Z,99789.28
2023-05-02T11:57:38.846Z,99795.56
2023-05-02T11:58:40.848Z,99797.69
2023-05-02T11:59:56.463Z,99800.44
2023-05-02T12:00:59.599Z,99791.88
2023-05-02T12:02:01.777Z,99795.59
2023-05-02T12:03:04.312Z,99798.19
2023-05-02T12:04:08.018Z,99792.72
2023-05-02T12:05:12.446Z,99791.47
2023-05-02T12:06:21.251Z,99791.47
2023-05-02T12:07:40.587Z,99794.31
2023-05-02T12:08:44.101Z,99792.72
2023-05-02T12:09:53.401Z,99793.22
2023-05-02T12:10:56.582Z,99779.97
2023-05-02T12:11:58.530Z,99788.19
2023-05-02T12:13:05.916Z,99782.69
2023-05-02T12:14:07.974Z,99779.22
2023-05-02T12:15:11.950Z,99777.63
2023-05-02T12:16:14.337Z,99782.34
2023-05-02T12:17:16.927Z,99783.34
2023-05-02T12:18:22.074Z,99786.13
2023-05-02T12:19:24.354Z,99785.34
2023-05-02T12:20:26.473Z,99789.88
2023-05-02T12:21:35.854Z,99779.22
2023-05-02T12:22:38.476Z,99784.25
2023-05-02T12:23:42.327Z,99781.16
2023-05-02T12:24:44.591Z,99784.25
2023-05-02T12:25:46.460Z,99786.09
2023-05-02T12:26:48.827Z,99787.37
2023-05-02T12:28:01.577Z,99785.31
2023-05-02T12:29:06.595Z,99783.16
2023-05-02T12:30:08.929Z,99776.84
2023-05-02T12:31:12.022Z,99785.13
2023-05-02T12:32:16.883Z,99779.19
2023-05-02T12:33:19.462Z,99781.38
2023-05-02T12:34:32.857Z,99775.72
2023-05-02T12:35:36.067Z,99782.66
2023-05-02T12:36:44.485Z,99785.69
2023-05-02T12:37:47.437Z,99780.47
2023-05-02T12:38:52.981Z,99783.22
2023-05-02T12:39:56.870Z,99782.75
2023-05-02T12:40:58.836Z,99779.78
2023-05-02T12:42:00.914Z,99778.31